Terminal Aerodrome Forecast
Issued by NWS

Home | Current Version | Previous Version | Text Only | Print | Product List | Glossary On
Versions: 1 2 3 4 5 6 7 8 9 10 11 12 13 14
000
FTUS45 KCYS 242321
TAFRWL
TAF
KRWL 242321Z 2500/2524 26015KT P6SM SCT130
     FM250300 VRB04KT P6SM BKN200
     FM251500 24016KT P6SM BKN150=

USA.gov is the U.S. government's official web portal to all federal, state and local government web resources and services.